Time;durP1;ratioP1;P1;durP2;ratioP2;P2;SDS_P1;SDS_P2;PMS_P1;PMS_P2;Temp;Humidity;BMP_temperature;BMP_pressure;BME280_temperature;BME280_humidity;BME280_pressure;Samples;Min_cycle;Max_cycle;Signal;HPM_P1;HPM_P2
2023/08/11 00:01:09;;;;;;;3.60;3.30;;;15.40;99.70;;;;;;5087934;28;20653;-74
2023/08/11 00:03:36;;;;;;;3.63;3.33;;;15.40;99.90;;;;;;5092533;28;20629;-74
2023/08/11 00:06:03;;;;;;;2.80;2.60;;;15.40;99.90;;;;;;5087787;28;20663;-74
2023/08/11 00:08:31;;;;;;;3.60;2.83;;;15.50;99.90;;;;;;5100089;28;20643;-74
2023/08/11 00:10:58;;;;;;;3.60;3.30;;;15.50;99.70;;;;;;5095670;28;20655;-74
2023/08/11 00:13:25;;;;;;;3.40;3.10;;;15.60;99.40;;;;;;5090727;28;20621;-75
2023/08/11 00:15:52;;;;;;;2.73;2.53;;;15.60;99.20;;;;;;5092944;28;20683;-75
2023/08/11 00:18:19;;;;;;;3.37;2.93;;;15.60;98.70;;;;;;5087561;28;20620;-75
2023/08/11 00:20:46;;;;;;;2.93;2.63;;;15.70;98.50;;;;;;5091507;28;20652;-74
2023/08/11 00:23:13;;;;;;;3.47;2.73;;;15.60;98.60;;;;;;5099329;28;20714;-75
2023/08/11 00:25:41;;;;;;;3.27;2.80;;;15.50;99.30;;;;;;5090397;28;20651;-74
2023/08/11 00:28:08;;;;;;;2.97;2.67;;;15.50;99.10;;;;;;5094793;28;20620;-75
2023/08/11 00:30:34;;;;;;;3.47;3.17;;;15.50;99.50;;;;;;5097238;28;20652;-75
2023/08/11 00:33:01;;;;;;;3.20;2.90;;;15.40;99.80;;;;;;5087058;28;20620;-75
2023/08/11 00:35:28;;;;;;;4.13;3.30;;;15.30;99.90;;;;;;5089648;28;20644;-75
2023/08/11 00:37:55;;;;;;;3.93;3.13;;;15.20;99.90;;;;;;5079399;28;20627;-75
2023/08/11 00:40:22;;;;;;;3.23;3.00;;;15.20;99.90;;;;;;5093434;28;20686;-74
2023/08/11 00:42:50;;;;;;;3.23;2.93;;;15.30;99.90;;;;;;5091329;28;20625;-75
2023/08/11 00:45:17;;;;;;;2.80;2.60;;;15.20;99.90;;;;;;5098194;28;20635;-74
2023/08/11 00:47:45;;;;;;;2.97;2.67;;;15.20;99.90;;;;;;5096132;28;20628;-75
2023/08/11 00:50:12;;;;;;;3.07;2.63;;;15.10;99.90;;;;;;5096367;28;20731;-75
2023/08/11 00:52:40;;;;;;;4.50;3.33;;;15.10;99.90;;;;;;5092741;28;20692;-75
2023/08/11 00:55:08;;;;;;;3.53;3.23;;;15.10;99.90;;;;;;5087098;28;20630;-75
2023/08/11 00:57:36;;;;;;;5.17;3.20;;;15.20;99.90;;;;;;5092376;28;20656;-75
2023/08/11 01:00:12;;;;;;;5.27;3.77;;;15.20;99.90;;;;;;5087636;28;20716;-74
2023/08/11 01:02:41;;;;;;;5.30;3.27;;;15.10;99.90;;;;;;5090046;28;20778;-74
2023/08/11 01:05:09;;;;;;;3.40;2.47;;;15.00;99.90;;;;;;5095928;28;20617;-75
2023/08/11 01:07:42;;;;;;;3.33;3.00;;;14.90;99.90;;;;;;5094940;28;20650;-75
2023/08/11 01:10:17;;;;;;;3.47;3.03;;;14.80;99.90;;;;;;5098563;28;21040;-75
2023/08/11 01:12:51;;;;;;;2.87;2.50;;;14.70;99.90;;;;;;5084581;28;20702;-75
2023/08/11 01:15:24;;;;;;;3.20;2.90;;;14.70;99.90;;;;;;5092594;28;20731;-74
2023/08/11 01:17:52;;;;;;;4.63;2.90;;;14.80;99.90;;;;;;5093271;28;21555;-74
2023/08/11 01:20:19;;;;;;;3.37;3.07;;;14.90;99.90;;;;;;5089827;28;20627;-74
2023/08/11 01:22:52;;;;;;;3.23;2.93;;;15.00;99.90;;;;;;5090562;28;21079;-74
2023/08/11 01:25:21;;;;;;;4.30;3.50;;;15.00;99.90;;;;;;5091037;28;20625;-74
2023/08/11 01:27:54;;;;;;;3.73;3.10;;;15.00;99.90;;;;;;5098852;28;21002;-74
2023/08/11 01:30:22;;;;;;;3.47;3.17;;;14.90;99.90;;;;;;5097909;28;20639;-74
2023/08/11 01:32:50;;;;;;;3.37;3.00;;;15.00;99.90;;;;;;5085371;28;20674;-74
2023/08/11 01:35:18;;;;;;;3.27;2.47;;;15.00;99.90;;;;;;5090377;28;21188;-75
2023/08/11 01:37:46;;;;;;;3.43;2.70;;;15.00;99.90;;;;;;5090003;28;21077;-75
2023/08/11 01:40:15;;;;;;;2.90;2.63;;;15.00;99.90;;;;;;5097232;28;20629;-75
2023/08/11 01:42:46;;;;;;;3.43;2.90;;;14.80;99.90;;;;;;5092967;28;20982;-74
2023/08/11 01:45:15;;;;;;;3.37;3.17;;;14.70;99.90;;;;;;5102061;28;20630;-74
2023/08/11 01:47:46;;;;;;;2.70;2.50;;;14.60;99.90;;;;;;5092696;28;20620;-74
2023/08/11 01:50:16;;;;;;;2.50;2.30;;;14.70;99.90;;;;;;5099057;28;21274;-74
2023/08/11 01:52:46;;;;;;;3.20;2.70;;;14.70;99.90;;;;;;5091209;28;21005;-75
2023/08/11 01:55:15;;;;;;;3.20;2.70;;;14.70;99.90;;;;;;5086768;28;20613;-75
2023/08/11 01:57:44;;;;;;;3.00;2.70;;;14.80;99.90;;;;;;5097660;28;20687;-74
2023/08/11 02:00:13;;;;;;;2.97;2.37;;;14.80;99.90;;;;;;5094679;28;20637;-74
2023/08/11 02:02:42;;;;;;;3.43;2.50;;;14.90;99.90;;;;;;5089492;28;20629;-75
2023/08/11 02:05:12;;;;;;;3.20;2.60;;;14.80;99.90;;;;;;5089184;28;20740;-75
2023/08/11 02:07:39;;;;;;;3.73;3.40;;;14.90;99.90;;;;;;5089294;28;20648;-74
2023/08/11 02:10:08;;;;;;;2.87;2.67;;;14.80;99.90;;;;;;5089819;28;20647;-74
2023/08/11 02:12:35;;;;;;;4.20;3.03;;;14.80;99.90;;;;;;5098549;28;20976;-75
2023/08/11 02:15:04;;;;;;;3.10;2.87;;;14.80;99.90;;;;;;5093911;28;20613;-74
2023/08/11 02:17:31;;;;;;;7.20;2.80;;;14.80;99.90;;;;;;5097274;28;20652;-75
2023/08/11 02:19:59;;;;;;;2.80;2.50;;;14.80;99.90;;;;;;5088555;28;20625;-74
2023/08/11 02:22:27;;;;;;;3.40;3.03;;;14.80;99.90;;;;;;5092814;28;20733;-75
2023/08/11 02:24:54;;;;;;;2.97;2.70;;;14.80;99.90;;;;;;5089446;28;20640;-74
2023/08/11 02:27:23;;;;;;;3.03;2.83;;;14.70;99.90;;;;;;5097715;28;20663;-75
2023/08/11 02:29:51;;;;;;;4.30;3.17;;;14.70;99.90;;;;;;5092733;28;20616;-75
2023/08/11 02:32:20;;;;;;;4.50;3.67;;;14.70;99.90;;;;;;5095009;28;20734;-75
2023/08/11 02:34:48;;;;;;;3.50;3.20;;;14.70;99.90;;;;;;5092359;28;20627;-75
2023/08/11 02:37:16;;;;;;;3.77;3.47;;;14.70;99.90;;;;;;5099684;28;20660;-75
2023/08/11 02:39:44;;;;;;;2.43;2.23;;;14.70;99.90;;;;;;5089583;28;20627;-74
2023/08/11 02:42:12;;;;;;;2.83;2.60;;;14.70;99.90;;;;;;5094092;28;20725;-74
2023/08/11 02:44:40;;;;;;;3.40;3.10;;;14.70;99.90;;;;;;5092381;28;21243;-74
2023/08/11 02:47:08;;;;;;;4.17;3.80;;;14.70;99.90;;;;;;5098075;28;20714;-74
2023/08/11 02:49:37;;;;;;;4.70;3.20;;;14.70;99.90;;;;;;5096381;28;20640;-74
2023/08/11 02:52:05;;;;;;;3.03;2.73;;;14.50;99.90;;;;;;5098316;28;20662;-74
2023/08/11 02:54:33;;;;;;;2.90;2.60;;;14.40;99.90;;;;;;5093380;28;21289;-74
2023/08/11 02:57:01;;;;;;;3.30;3.00;;;14.50;99.90;;;;;;5097354;28;20702;-74
2023/08/11 02:59:30;;;;;;;2.57;2.33;;;14.50;99.90;;;;;;5088005;28;20957;-74
2023/08/11 03:01:57;;;;;;;4.30;3.00;;;14.60;99.90;;;;;;5090615;28;20653;-74
2023/08/11 03:04:25;;;;;;;3.93;2.87;;;14.60;99.90;;;;;;5100782;28;20620;-74
2023/08/11 03:06:54;;;;;;;3.57;3.03;;;14.60;99.90;;;;;;5092875;28;21064;-74
2023/08/11 03:09:22;;;;;;;3.47;3.20;;;14.60;99.90;;;;;;5089162;28;20627;-74
2023/08/11 03:11:49;;;;;;;3.30;3.00;;;14.60;99.90;;;;;;5088419;28;20637;-74
2023/08/11 03:14:18;;;;;;;2.80;2.60;;;14.60;99.90;;;;;;5097868;28;20624;-74
2023/08/11 03:16:45;;;;;;;4.87;3.17;;;14.60;99.90;;;;;;5088980;28;20763;-74
2023/08/11 03:19:12;;;;;;;4.60;3.10;;;14.60;99.90;;;;;;5088901;28;20612;-74
2023/08/11 03:21:39;;;;;;;4.97;3.50;;;14.70;99.90;;;;;;5094800;28;21219;-75
2023/08/11 03:24:07;;;;;;;2.90;2.70;;;14.70;99.90;;;;;;5098273;28;21164;-75
2023/08/11 03:26:34;;;;;;;3.40;3.20;;;14.70;99.90;;;;;;5098878;28;20645;-75
2023/08/11 03:29:01;;;;;;;2.63;2.43;;;14.70;99.90;;;;;;5087229;28;20621;-75
2023/08/11 03:31:28;;;;;;;3.33;2.57;;;14.60;99.90;;;;;;5096649;28;20689;-74
2023/08/11 03:33:55;;;;;;;4.70;3.40;;;14.50;99.90;;;;;;5096602;28;20653;-75
2023/08/11 03:36:22;;;;;;;3.50;3.20;;;14.40;99.90;;;;;;5087878;28;20676;-74
2023/08/11 03:38:49;;;;;;;3.37;2.87;;;14.40;99.90;;;;;;5086451;28;20687;-75
2023/08/11 03:41:17;;;;;;;3.20;2.90;;;14.40;99.90;;;;;;5094312;28;20739;-74
2023/08/11 03:43:44;;;;;;;2.97;2.67;;;14.30;99.90;;;;;;5090126;28;20625;-75
2023/08/11 03:46:11;;;;;;;2.87;2.60;;;14.30;99.90;;;;;;5095872;28;20754;-75
2023/08/11 03:48:38;;;;;;;4.73;3.60;;;14.40;99.90;;;;;;5091669;28;20621;-75
2023/08/11 03:51:04;;;;;;;5.30;3.10;;;14.40;99.90;;;;;;5103330;28;20649;-75
2023/08/11 03:53:31;;;;;;;3.80;3.50;;;14.40;99.90;;;;;;5087126;28;20628;-75
2023/08/11 03:55:58;;;;;;;3.90;3.33;;;14.50;99.90;;;;;;5089170;28;21265;-74
2023/08/11 03:58:26;;;;;;;7.67;3.60;;;14.60;99.90;;;;;;5097084;28;20699;-75
2023/08/11 04:00:53;;;;;;;3.53;3.10;;;14.60;99.90;;;;;;5098670;28;20647;-74
2023/08/11 04:03:22;;;;;;;3.53;3.10;;;14.50;99.90;;;;;;5079333;28;20621;-74
2023/08/11 04:05:48;;;;;;;4.63;3.50;;;14.50;99.90;;;;;;5095096;28;20648;-74
2023/08/11 04:08:15;;;;;;;2.97;2.63;;;14.50;99.90;;;;;;5091448;28;20647;-74
2023/08/11 04:10:42;;;;;;;3.23;3.03;;;14.40;99.90;;;;;;5092954;28;20748;-74
2023/08/11 04:13:09;;;;;;;2.93;2.63;;;14.40;99.90;;;;;;5095698;28;20623;-74
2023/08/11 04:15:38;;;;;;;3.63;3.33;;;14.40;99.90;;;;;;5092033;28;20739;-74
2023/08/11 04:18:05;;;;;;;4.90;3.60;;;14.40;99.90;;;;;;5091230;28;20656;-74
2023/08/11 04:20:33;;;;;;;3.33;3.03;;;14.50;99.90;;;;;;5097476;28;20651;-75
2023/08/11 04:23:00;;;;;;;3.20;2.90;;;14.50;99.90;;;;;;5092586;28;20629;-75
2023/08/11 04:25:26;;;;;;;3.47;3.17;;;14.50;99.90;;;;;;5096140;28;20652;-74
2023/08/11 04:27:55;;;;;;;3.00;2.70;;;14.50;99.90;;;;;;5087173;28;20624;-75
2023/08/11 04:30:22;;;;;;;3.80;3.10;;;14.50;99.90;;;;;;5086483;28;20678;-74
2023/08/11 04:32:51;;;;;;;4.07;3.77;;;14.60;99.90;;;;;;5082145;28;20666;-74
2023/08/11 04:35:19;;;;;;;2.87;2.63;;;14.60;99.90;;;;;;5090828;28;20629;-76
2023/08/11 04:37:46;;;;;;;3.43;3.17;;;14.60;99.90;;;;;;5096488;28;20648;-73
2023/08/11 04:40:17;;;;;;;5.07;3.53;;;14.60;99.90;;;;;;5087474;28;20623;-76
2023/08/11 04:42:44;;;;;;;3.50;3.00;;;14.70;99.90;;;;;;5092285;28;20636;-73
2023/08/11 04:45:12;;;;;;;3.77;3.43;;;14.60;99.90;;;;;;5093580;28;20623;-73
2023/08/11 04:47:38;;;;;;;4.33;3.87;;;14.60;99.90;;;;;;5090989;28;20976;-73
2023/08/11 04:50:08;;;;;;;3.73;3.17;;;14.70;99.90;;;;;;5091271;28;20623;-73
2023/08/11 04:52:35;;;;;;;5.03;3.77;;;14.80;99.90;;;;;;5088263;28;20639;-73
2023/08/11 04:55:03;;;;;;;4.70;3.83;;;14.80;99.90;;;;;;5092245;28;20719;-73
2023/08/11 04:57:29;;;;;;;3.97;3.50;;;14.90;99.90;;;;;;5092262;28;20747;-74
2023/08/11 04:59:56;;;;;;;3.20;2.90;;;15.00;99.90;;;;;;5099589;28;20719;-75
2023/08/11 05:02:23;;;;;;;4.50;3.33;;;15.00;99.90;;;;;;5095609;28;20699;-74
2023/08/11 05:04:50;;;;;;;4.70;3.73;;;15.10;99.90;;;;;;5090936;28;20624;-73
2023/08/11 05:07:18;;;;;;;4.03;3.60;;;15.10;99.90;;;;;;5099206;28;20726;-73
2023/08/11 05:09:45;;;;;;;3.40;3.10;;;15.20;99.90;;;;;;5097176;28;20621;-73
2023/08/11 05:12:12;;;;;;;3.60;3.30;;;15.20;99.90;;;;;;5088924;28;20649;-74
2023/08/11 05:14:39;;;;;;;3.47;3.17;;;15.30;99.90;;;;;;5089283;28;20724;-73
2023/08/11 05:17:06;;;;;;;5.70;3.67;;;15.30;99.90;;;;;;5096422;28;21192;-73
2023/08/11 05:19:33;;;;;;;4.20;3.80;;;15.40;99.90;;;;;;5097764;28;20670;-73
2023/08/11 05:22:00;;;;;;;3.43;3.17;;;15.50;99.90;;;;;;5094271;28;20666;-74
2023/08/11 05:24:28;;;;;;;4.47;3.77;;;15.50;99.90;;;;;;5082447;28;21212;-74
2023/08/11 05:26:57;;;;;;;3.40;3.10;;;15.60;99.90;;;;;;5081051;28;20640;-74
2023/08/11 05:29:24;;;;;;;3.47;3.13;;;15.60;99.90;;;;;;5083439;28;20624;-73
2023/08/11 05:31:51;;;;;;;3.30;3.00;;;15.60;99.90;;;;;;5066282;28;20694;-74
2023/08/11 05:34:17;;;;;;;3.17;2.87;;;15.70;99.90;;;;;;5085457;28;20690;-74
2023/08/11 05:36:44;;;;;;;4.10;2.93;;;15.70;99.90;;;;;;5089605;28;20644;-74
2023/08/11 05:39:12;;;;;;;3.77;3.37;;;15.70;99.90;;;;;;5088692;28;20644;-74
2023/08/11 05:41:41;;;;;;;4.50;3.50;;;15.80;99.90;;;;;;5099688;28;20747;-74
2023/08/11 05:44:08;;;;;;;3.73;3.43;;;15.90;99.90;;;;;;5097891;28;20628;-74
2023/08/11 05:46:35;;;;;;;5.13;3.17;;;16.00;99.90;;;;;;5089831;28;20648;-74
2023/08/11 05:49:01;;;;;;;2.90;2.70;;;16.20;99.90;;;;;;5094690;28;20642;-73
2023/08/11 05:51:28;;;;;;;4.77;3.87;;;16.30;99.90;;;;;;5095208;28;20676;-74
2023/08/11 05:53:55;;;;;;;4.57;3.20;;;16.40;99.90;;;;;;5095439;28;20701;-74
2023/08/11 05:56:22;;;;;;;4.33;3.50;;;16.40;99.90;;;;;;5089740;28;20649;-73
2023/08/11 05:58:50;;;;;;;3.90;3.60;;;16.40;99.90;;;;;;5095091;28;21098;-73
2023/08/11 06:01:17;;;;;;;3.97;3.60;;;16.50;99.90;;;;;;5086619;28;20644;-74
2023/08/11 06:03:44;;;;;;;3.77;3.47;;;16.60;99.70;;;;;;5089879;28;20667;-74
2023/08/11 06:06:11;;;;;;;3.67;3.37;;;16.80;99.30;;;;;;5098612;28;20640;-74
2023/08/11 06:08:37;;;;;;;3.07;2.87;;;16.80;99.20;;;;;;5070416;28;20643;-75
2023/08/11 06:11:04;;;;;;;4.47;3.73;;;16.80;99.30;;;;;;5087519;28;20651;-76
2023/08/11 06:13:31;;;;;;;3.97;2.97;;;17.00;99.20;;;;;;5097546;28;20629;-74
2023/08/11 06:15:59;;;;;;;3.33;3.03;;;17.00;99.10;;;;;;5097498;28;20671;-74
2023/08/11 06:18:26;;;;;;;4.07;3.67;;;17.20;99.00;;;;;;5089277;28;20968;-74
2023/08/11 06:20:53;;;;;;;3.73;3.20;;;17.30;98.90;;;;;;5093710;28;20689;-74
2023/08/11 06:23:20;;;;;;;3.80;3.10;;;17.40;98.70;;;;;;5096522;28;20664;-75
2023/08/11 06:25:46;;;;;;;3.20;2.90;;;17.40;98.70;;;;;;5094001;28;20807;-74
2023/08/11 06:28:14;;;;;;;3.20;2.90;;;17.50;98.80;;;;;;5095106;28;20661;-74
2023/08/11 06:30:40;;;;;;;3.00;2.70;;;17.50;98.50;;;;;;5090409;28;20672;-75
2023/08/11 06:33:09;;;;;;;4.47;3.73;;;17.70;97.80;;;;;;5088964;28;20712;-74
2023/08/11 06:35:35;;;;;;;3.73;3.40;;;17.80;97.70;;;;;;5094532;28;20644;-74
2023/08/11 06:38:02;;;;;;;3.40;2.87;;;17.90;97.60;;;;;;5095431;28;21128;-74
2023/08/11 06:40:30;;;;;;;3.70;3.33;;;17.90;97.60;;;;;;5097079;28;20639;-74
2023/08/11 06:42:57;;;;;;;3.30;3.00;;;18.00;97.50;;;;;;5090668;28;21096;-74
2023/08/11 06:45:24;;;;;;;2.70;2.50;;;18.10;97.40;;;;;;5093488;28;20656;-74
2023/08/11 06:47:51;;;;;;;3.40;3.10;;;18.20;97.50;;;;;;5086203;28;20678;-74
2023/08/11 06:50:19;;;;;;;3.47;3.20;;;18.20;97.60;;;;;;5092115;28;20620;-74
2023/08/11 06:52:46;;;;;;;2.70;2.50;;;18.30;97.20;;;;;;5096415;28;20625;-74
2023/08/11 06:55:13;;;;;;;3.37;2.97;;;18.40;97.40;;;;;;5093757;28;20998;-74
2023/08/11 06:57:40;;;;;;;6.37;3.17;;;18.50;97.40;;;;;;5096472;28;20647;-74
2023/08/11 07:00:08;;;;;;;4.30;3.50;;;18.70;97.20;;;;;;5086493;28;20744;-74
2023/08/11 07:02:35;;;;;;;3.97;3.67;;;18.80;97.10;;;;;;5087413;28;21390;-75
2023/08/11 07:05:03;;;;;;;4.27;2.93;;;18.90;97.50;;;;;;5087272;28;20727;-74
2023/08/11 07:07:31;;;;;;;3.57;3.27;;;19.00;97.30;;;;;;5089181;28;20642;-75
2023/08/11 07:09:58;;;;;;;3.50;3.00;;;19.00;96.70;;;;;;5096194;28;20688;-74
2023/08/11 07:12:25;;;;;;;6.63;2.93;;;19.20;96.80;;;;;;5086025;28;20648;-74
2023/08/11 07:14:53;;;;;;;2.70;2.47;;;19.30;96.80;;;;;;5088186;28;20621;-74
2023/08/11 07:17:20;;;;;;;2.60;2.20;;;19.50;96.90;;;;;;5090282;28;20636;-74
2023/08/11 07:19:46;;;;;;;2.60;2.40;;;19.70;97.10;;;;;;5087492;28;20649;-74
2023/08/11 07:22:13;;;;;;;4.60;3.20;;;19.80;96.90;;;;;;5089255;28;21045;-74
2023/08/11 07:24:41;;;;;;;3.23;3.00;;;19.90;96.30;;;;;;5086388;28;20728;-74
2023/08/11 07:27:08;;;;;;;3.00;2.80;;;19.90;96.10;;;;;;5087228;28;20690;-74
2023/08/11 07:29:35;;;;;;;3.13;2.83;;;20.10;95.60;;;;;;5091930;28;20707;-74
2023/08/11 07:32:04;;;;;;;3.80;3.40;;;20.10;95.50;;;;;;5087322;28;20638;-75
2023/08/11 07:34:30;;;;;;;3.37;2.67;;;20.30;95.30;;;;;;5087864;28;20728;-74
2023/08/11 07:36:57;;;;;;;3.20;2.70;;;20.40;94.00;;;;;;5093536;28;20666;-74
2023/08/11 07:39:24;;;;;;;3.60;3.30;;;20.50;94.60;;;;;;5091153;28;20754;-75
2023/08/11 07:41:52;;;;;;;3.43;2.90;;;20.70;94.10;;;;;;5090438;28;21221;-74
2023/08/11 07:44:19;;;;;;;3.50;2.90;;;20.70;94.00;;;;;;5096022;28;20635;-74
2023/08/11 07:46:46;;;;;;;3.50;3.20;;;20.80;94.70;;;;;;5093975;28;20672;-74
2023/08/11 07:49:13;;;;;;;4.07;3.50;;;21.00;93.80;;;;;;5092492;28;20639;-74
2023/08/11 07:51:40;;;;;;;2.80;2.50;;;21.00;92.90;;;;;;5090909;28;20654;-74
2023/08/11 07:54:07;;;;;;;4.50;2.87;;;21.00;93.90;;;;;;5090992;28;20730;-74
2023/08/11 07:56:34;;;;;;;3.40;3.20;;;21.20;93.30;;;;;;5092302;28;20648;-74
2023/08/11 07:59:03;;;;;;;3.27;3.00;;;21.40;93.30;;;;;;5093738;28;20639;-74
2023/08/11 08:01:29;;;;;;;3.77;3.47;;;21.60;93.50;;;;;;5087152;28;20662;-74
2023/08/11 08:03:56;;;;;;;3.27;2.63;;;21.60;92.20;;;;;;5086807;28;20634;-73
2023/08/11 08:06:23;;;;;;;3.37;3.10;;;21.70;92.20;;;;;;5090121;28;20657;-75
2023/08/11 08:08:50;;;;;;;3.00;2.80;;;21.90;92.30;;;;;;5094408;28;20691;-74
2023/08/11 08:11:18;;;;;;;4.03;3.13;;;22.00;92.20;;;;;;5087154;28;20653;-73
2023/08/11 08:13:45;;;;;;;4.33;3.20;;;22.10;91.80;;;;;;5095153;28;20639;-73
2023/08/11 08:16:13;;;;;;;3.87;3.30;;;22.00;92.30;;;;;;5088474;28;20746;-74
2023/08/11 08:18:40;;;;;;;4.80;2.67;;;22.20;92.00;;;;;;5094209;28;20655;-73
2023/08/11 08:21:06;;;;;;;4.50;2.90;;;22.40;92.40;;;;;;5086463;28;20739;-73
2023/08/11 08:23:33;;;;;;;3.20;2.90;;;22.40;91.80;;;;;;5089569;28;21208;-73
2023/08/11 08:26:00;;;;;;;3.70;3.10;;;22.60;92.10;;;;;;5088211;28;20686;-73
2023/08/11 08:28:27;;;;;;;4.27;3.53;;;22.70;91.80;;;;;;5091807;28;20634;-73
2023/08/11 08:30:54;;;;;;;5.10;2.90;;;22.80;92.20;;;;;;5100329;28;20645;-74
2023/08/11 08:33:22;;;;;;;3.30;3.03;;;22.90;91.40;;;;;;5090410;28;21193;-73
2023/08/11 08:35:49;;;;;;;3.97;3.57;;;23.10;90.70;;;;;;5090016;28;20656;-73
2023/08/11 08:38:16;;;;;;;3.10;2.87;;;23.00;90.40;;;;;;5098328;28;20626;-73
2023/08/11 08:40:43;;;;;;;3.80;3.50;;;23.10;90.60;;;;;;5087181;28;21262;-73
2023/08/11 08:43:10;;;;;;;2.20;2.10;;;23.30;90.20;;;;;;5086109;28;21576;-74
2023/08/11 08:45:38;;;;;;;3.47;3.17;;;23.40;89.10;;;;;;5087554;28;21307;-73
2023/08/11 08:48:13;;;;;;;4.10;3.50;;;23.50;88.40;;;;;;5082221;28;20676;-74
2023/08/11 08:50:41;;;;;;;3.30;2.93;;;23.60;88.30;;;;;;5092438;28;20655;-73
2023/08/11 08:53:09;;;;;;;3.27;2.97;;;23.70;89.00;;;;;;5086319;28;20622;-74
2023/08/11 08:55:36;;;;;;;4.00;3.30;;;23.90;87.60;;;;;;5094879;28;20652;-74
2023/08/11 08:58:03;;;;;;;4.10;3.70;;;24.00;88.80;;;;;;5095567;28;20631;-74
2023/08/11 09:00:30;;;;;;;3.87;3.47;;;24.10;87.70;;;;;;5096903;28;20658;-74
2023/08/11 09:02:59;;;;;;;3.30;3.00;;;24.10;86.50;;;;;;5089773;28;20623;-74
2023/08/11 09:05:26;;;;;;;2.60;2.40;;;24.20;85.70;;;;;;5089701;28;20769;-74
2023/08/11 09:07:54;;;;;;;4.07;3.30;;;24.30;87.60;;;;;;5086363;28;20737;-74
2023/08/11 09:10:21;;;;;;;3.33;2.40;;;24.30;88.00;;;;;;5091677;28;20989;-74
2023/08/11 09:12:50;;;;;;;2.83;2.60;;;24.40;86.10;;;;;;5093816;28;21236;-73
2023/08/11 09:15:17;;;;;;;3.80;3.40;;;24.50;86.10;;;;;;5088049;28;20636;-74
2023/08/11 09:17:44;;;;;;;3.00;2.80;;;24.60;86.00;;;;;;5088526;28;21219;-74
2023/08/11 09:20:12;;;;;;;5.83;3.77;;;24.70;86.40;;;;;;5085577;28;20754;-74
2023/08/11 09:22:41;;;;;;;4.30;3.00;;;24.70;86.60;;;;;;5077731;28;20627;-74
2023/08/11 09:25:10;;;;;;;5.50;3.30;;;24.80;84.80;;;;;;5089411;28;21171;-74
2023/08/11 09:27:37;;;;;;;3.33;3.03;;;24.90;83.70;;;;;;5092079;28;20633;-72
2023/08/11 09:30:04;;;;;;;7.73;3.07;;;24.90;85.00;;;;;;5092259;28;21254;-74
2023/08/11 09:32:33;;;;;;;3.17;2.97;;;24.90;86.00;;;;;;5089042;28;20638;-72
2023/08/11 09:35:02;;;;;;;3.60;3.30;;;25.00;83.80;;;;;;5099813;28;20622;-72
2023/08/11 09:37:29;;;;;;;3.40;3.03;;;25.20;84.90;;;;;;5094282;28;21278;-72
2023/08/11 09:39:56;;;;;;;3.50;3.20;;;25.20;83.70;;;;;;5089054;28;20659;-72
2023/08/11 09:42:27;;;;;;;3.23;2.83;;;25.50;84.70;;;;;;5092124;28;20654;-72
2023/08/11 09:44:54;;;;;;;3.60;3.30;;;25.60;84.50;;;;;;5096083;28;21208;-72
2023/08/11 09:47:21;;;;;;;2.90;2.70;;;25.60;81.60;;;;;;5094727;28;20738;-73
2023/08/11 09:49:48;;;;;;;3.20;2.87;;;25.70;84.50;;;;;;5091232;28;20638;-74
2023/08/11 09:52:16;;;;;;;3.60;2.77;;;25.70;84.00;;;;;;5097069;28;20678;-74
2023/08/11 09:54:44;;;;;;;4.20;3.40;;;25.80;83.70;;;;;;5091525;28;20764;-73
2023/08/11 09:57:14;;;;;;;3.60;3.30;;;25.90;81.50;;;;;;5091580;28;20645;-73
2023/08/11 09:59:47;;;;;;;3.30;3.07;;;26.10;81.30;;;;;;5090831;28;20685;-73
2023/08/11 10:02:18;;;;;;;3.70;3.40;;;26.10;82.40;;;;;;5087955;28;20644;-74
2023/08/11 10:04:56;;;;;;;3.20;2.70;;;26.20;81.40;;;;;;5097428;28;20675;-74
2023/08/11 10:07:29;;;;;;;4.83;2.33;;;26.20;80.50;;;;;;5088603;28;20722;-74
2023/08/11 10:09:57;;;;;;;3.43;2.97;;;26.40;82.30;;;;;;5088848;28;20727;-74
2023/08/11 10:12:24;;;;;;;3.17;2.97;;;26.60;79.10;;;;;;5090572;28;20736;-75
2023/08/11 10:14:53;;;;;;;2.60;2.40;;;26.70;78.20;;;;;;5095208;28;21235;-75
2023/08/11 10:17:20;;;;;;;2.80;2.60;;;26.70;78.40;;;;;;5086930;28;21071;-74
2023/08/11 10:19:47;;;;;;;2.83;2.63;;;26.70;76.70;;;;;;5087881;28;21275;-75
2023/08/11 10:22:15;;;;;;;3.03;2.80;;;26.80;76.10;;;;;;5096216;28;20713;-75
2023/08/11 10:24:43;;;;;;;3.03;2.60;;;26.90;75.40;;;;;;5096922;28;20631;-75
2023/08/11 10:27:10;;;;;;;3.60;2.90;;;27.00;77.20;;;;;;5095511;28;20810;-75
2023/08/11 10:29:40;;;;;;;3.30;3.00;;;27.20;73.70;;;;;;5090651;28;20613;-75
2023/08/11 10:32:11;;;;;;;4.27;3.87;;;27.20;74.40;;;;;;5097190;28;20648;-75
2023/08/11 10:34:38;;;;;;;3.80;3.13;;;27.30;74.70;;;;;;5098207;28;20687;-75
2023/08/11 10:37:08;;;;;;;3.27;2.93;;;27.40;76.40;;;;;;5100229;28;21203;-75
2023/08/11 10:39:36;;;;;;;3.60;3.30;;;27.50;76.30;;;;;;5094141;28;20649;-75
2023/08/11 10:42:04;;;;;;;3.33;3.13;;;27.60;76.10;;;;;;5097767;28;20752;-75
2023/08/11 10:44:31;;;;;;;3.50;3.20;;;27.60;77.00;;;;;;5092195;28;20837;-75
2023/08/11 10:47:00;;;;;;;4.00;3.57;;;27.80;75.60;;;;;;5090272;28;20645;-75
2023/08/11 10:49:41;;;;;;;4.50;3.10;;;27.90;76.40;;;;;;5092403;28;20961;-74
2023/08/11 10:52:08;;;;;;;3.23;2.90;;;28.10;75.00;;;;;;5096100;28;20739;-74
2023/08/11 10:54:35;;;;;;;2.83;2.63;;;28.20;72.10;;;;;;5095298;28;20869;-74
2023/08/11 10:57:02;;;;;;;3.43;3.10;;;28.10;73.90;;;;;;5088017;28;20645;-74
2023/08/11 10:59:30;;;;;;;4.00;3.70;;;28.20;73.90;;;;;;5095826;28;20736;-75
2023/08/11 11:01:59;;;;;;;3.30;2.93;;;28.30;74.50;;;;;;5088062;28;21083;-75
2023/08/11 11:04:31;;;;;;;4.00;3.33;;;28.40;71.10;;;;;;5090539;28;20941;-74
2023/08/11 11:07:01;;;;;;;3.33;3.00;;;28.50;73.90;;;;;;5087878;28;20763;-74
2023/08/11 11:09:28;;;;;;;3.30;3.10;;;28.70;71.60;;;;;;5090905;28;20707;-74
2023/08/11 11:11:55;;;;;;;3.20;2.70;;;28.90;68.60;;;;;;5096190;28;21006;-74
2023/08/11 11:14:24;;;;;;;3.03;2.80;;;29.00;72.80;;;;;;5096734;28;20621;-74
2023/08/11 11:16:51;;;;;;;3.30;2.97;;;29.10;70.90;;;;;;5091453;28;20648;-73
2023/08/11 11:19:18;;;;;;;4.20;3.23;;;29.10;73.70;;;;;;5084647;28;20771;-73
2023/08/11 11:21:46;;;;;;;3.93;3.63;;;29.30;70.70;;;;;;5099964;28;20635;-73
2023/08/11 11:24:15;;;;;;;3.67;3.17;;;29.40;70.30;;;;;;5089595;28;20625;-73
2023/08/11 11:26:42;;;;;;;3.40;3.10;;;29.50;70.10;;;;;;5090486;28;21083;-73
2023/08/11 11:29:09;;;;;;;4.73;4.23;;;29.70;69.60;;;;;;5098546;28;21248;-73
2023/08/11 11:31:40;;;;;;;3.30;3.10;;;30.00;68.90;;;;;;5087774;28;21598;-73
2023/08/11 11:34:07;;;;;;;3.73;3.43;;;30.00;65.30;;;;;;5089296;28;20625;-73
2023/08/11 11:36:34;;;;;;;3.87;3.20;;;30.20;66.10;;;;;;5087811;28;21215;-73
2023/08/11 11:39:02;;;;;;;6.23;3.60;;;30.20;68.90;;;;;;5098700;28;20631;-72
2023/08/11 11:41:31;;;;;;;3.73;3.43;;;30.50;64.30;;;;;;5088899;28;20649;-72
2023/08/11 11:43:57;;;;;;;3.30;3.10;;;30.80;68.00;;;;;;5089738;28;20619;-72
2023/08/11 11:46:24;;;;;;;3.97;3.40;;;31.00;64.00;;;;;;5091157;28;20655;-72
2023/08/11 11:48:52;;;;;;;3.63;3.33;;;31.20;63.70;;;;;;5089101;28;20642;-73
2023/08/11 11:51:21;;;;;;;3.53;3.23;;;31.20;61.30;;;;;;5094134;28;20648;-72
2023/08/11 11:53:51;;;;;;;4.17;3.87;;;31.70;61.40;;;;;;5087332;28;20613;-73
2023/08/11 11:56:19;;;;;;;4.63;4.23;;;31.70;66.20;;;;;;5091509;28;21231;-72
2023/08/11 11:58:49;;;;;;;3.73;3.43;;;32.10;59.80;;;;;;5086105;28;20612;-73
2023/08/11 12:01:18;;;;;;;5.30;3.63;;;32.80;59.70;;;;;;5094586;28;20671;-72
2023/08/11 12:03:46;;;;;;;5.60;3.40;;;33.30;58.00;;;;;;5086826;28;20662;-73
2023/08/11 12:06:14;;;;;;;3.40;3.20;;;33.80;56.50;;;;;;5087296;28;20738;-73
2023/08/11 12:08:42;;;;;;;4.13;3.57;;;34.80;57.70;;;;;;5086701;28;20647;-73
2023/08/11 12:11:11;;;;;;;3.20;3.00;;;35.40;56.70;;;;;;5090143;28;20665;-73
2023/08/11 12:13:39;;;;;;;3.07;2.87;;;36.00;53.90;;;;;;5087146;28;20197;-74
2023/08/11 12:16:08;;;;;;;3.10;2.90;;;36.70;52.80;;;;;;5087373;28;20244;-74
2023/08/11 12:18:36;;;;;;;4.45;2.88;;;37.30;52.60;;;;;;5090230;28;20292;-73
2023/08/11 12:21:03;;;;;;;3.63;3.33;;;37.40;51.60;;;;;;5097473;28;20231;-73
2023/08/11 12:23:30;;;;;;;3.28;3.08;;;37.70;50.00;;;;;;5089182;28;20871;-73
2023/08/11 12:25:57;;;;;;;3.78;3.47;;;37.80;48.70;;;;;;5090861;28;20308;-73
2023/08/11 12:28:24;;;;;;;3.20;3.00;;;38.00;48.20;;;;;;5088145;28;20288;-73
2023/08/11 12:30:51;;;;;;;3.70;3.50;;;38.20;48.10;;;;;;5085938;28;20249;-74
2023/08/11 12:33:19;;;;;;;9.02;3.70;;;38.40;48.20;;;;;;5095447;28;20197;-72
2023/08/11 12:35:48;;;;;;;2.60;2.50;;;38.30;48.20;;;;;;5097029;28;20703;-72
2023/08/11 12:38:15;;;;;;;3.88;3.58;;;38.40;47.80;;;;;;5094505;28;20202;-74
2023/08/11 12:40:43;;;;;;;4.38;3.13;;;38.00;48.50;;;;;;5094267;28;20693;-73
2023/08/11 12:43:10;;;;;;;3.35;3.15;;;38.60;45.90;;;;;;5087349;28;20272;-73
2023/08/11 12:45:37;;;;;;;4.60;3.33;;;39.40;46.90;;;;;;5086121;28;20313;-74
2023/08/11 12:48:05;;;;;;;3.38;3.17;;;39.40;46.00;;;;;;5098639;28;20206;-74
2023/08/11 12:50:33;;;;;;;3.17;2.88;;;39.40;46.20;;;;;;5085544;28;20244;-74